sensor_id;sensor_type;location;lat;lon;timestamp;P1;P2;P0
59546;PMS5003;45368;55.002;-1.592;2023-06-14T00:01:02;22;22;
59546;PMS5003;45368;55.002;-1.592;2023-06-14T00:03:29;24;22;
59546;PMS5003;45368;55.002;-1.592;2023-06-14T00:05:57;26;22;
59546;PMS5003;45368;55.002;-1.592;2023-06-14T00:08:24;25;24;
59546;PMS5003;45368;55.002;-1.592;2023-06-14T00:10:52;23;23;
59546;PMS5003;45368;55.002;-1.592;2023-06-14T00:13:19;24;21;
59546;PMS5003;45368;55.002;-1.592;2023-06-14T00:15:46;23;22;
59546;PMS5003;45368;55.002;-1.592;2023-06-14T00:18:13;23;22;
59546;PMS5003;45368;55.002;-1.592;2023-06-14T00:20:40;24;24;
59546;PMS5003;45368;55.002;-1.592;2023-06-14T00:23:08;21;21;
59546;PMS5003;45368;55.002;-1.592;2023-06-14T00:25:35;22;22;
59546;PMS5003;45368;55.002;-1.592;2023-06-14T00:28:02;28;26;
59546;PMS5003;45368;55.002;-1.592;2023-06-14T00:30:29;24;21;
59546;PMS5003;45368;55.002;-1.592;2023-06-14T00:32:57;22;22;
59546;PMS5003;45368;55.002;-1.592;2023-06-14T00:35:25;23;21;
59546;PMS5003;45368;55.002;-1.592;2023-06-14T00:37:52;25;24;
59546;PMS5003;45368;55.002;-1.592;2023-06-14T00:40:19;27;26;
59546;PMS5003;45368;55.002;-1.592;2023-06-14T00:42:47;28;27;
59546;PMS5003;45368;55.002;-1.592;2023-06-14T00:45:14;22;22;
59546;PMS5003;45368;55.002;-1.592;2023-06-14T00:47:42;22;22;
59546;PMS5003;45368;55.002;-1.592;2023-06-14T00:50:12;27;24;
59546;PMS5003;45368;55.002;-1.592;2023-06-14T00:52:39;22;21;
59546;PMS5003;45368;55.002;-1.592;2023-06-14T00:55:07;22;21;
59546;PMS5003;45368;55.002;-1.592;2023-06-14T00:57:35;23;20;
59546;PMS5003;45368;55.002;-1.592;2023-06-14T01:00:03;21;20;
59546;PMS5003;45368;55.002;-1.592;2023-06-14T01:02:31;24;23;
59546;PMS5003;45368;55.002;-1.592;2023-06-14T01:04:58;21;20;
59546;PMS5003;45368;55.002;-1.592;2023-06-14T01:07:29;24;22;
59546;PMS5003;45368;55.002;-1.592;2023-06-14T01:10:10;25;24;
59546;PMS5003;45368;55.002;-1.592;2023-06-14T01:12:54;25;24;
59546;PMS5003;45368;55.002;-1.592;2023-06-14T01:15:27;21;20;
59546;PMS5003;45368;55.002;-1.592;2023-06-14T01:17:57;21;19;
59546;PMS5003;45368;55.002;-1.592;2023-06-14T01:20:26;21;21;
59546;PMS5003;45368;55.002;-1.592;2023-06-14T01:22:56;21;20;
59546;PMS5003;45368;55.002;-1.592;2023-06-14T01:25:23;21;21;
59546;PMS5003;45368;55.002;-1.592;2023-06-14T01:27:53;24;22;
59546;PMS5003;45368;55.002;-1.592;2023-06-14T01:30:23;23;23;
59546;PMS5003;45368;55.002;-1.592;2023-06-14T01:32:52;25;22;
59546;PMS5003;45368;55.002;-1.592;2023-06-14T01:35:20;22;20;
59546;PMS5003;45368;55.002;-1.592;2023-06-14T01:37:48;24;22;
59546;PMS5003;45368;55.002;-1.592;2023-06-14T01:40:17;24;23;
59546;PMS5003;45368;55.002;-1.592;2023-06-14T01:42:46;25;23;
59546;PMS5003;45368;55.002;-1.592;2023-06-14T01:45:14;21;20;
59546;PMS5003;45368;55.002;-1.592;2023-06-14T01:47:43;21;21;
59546;PMS5003;45368;55.002;-1.592;2023-06-14T01:50:11;20;20;
59546;PMS5003;45368;55.002;-1.592;2023-06-14T01:52:39;27;25;
59546;PMS5003;45368;55.002;-1.592;2023-06-14T01:55:06;23;23;
59546;PMS5003;45368;55.002;-1.592;2023-06-14T01:57:34;29;26;
59546;PMS5003;45368;55.002;-1.592;2023-06-14T02:00:01;23;22;
59546;PMS5003;45368;55.002;-1.592;2023-06-14T02:02:29;24;24;
59546;PMS5003;45368;55.002;-1.592;2023-06-14T02:04:56;25;23;
59546;PMS5003;45368;55.002;-1.592;2023-06-14T02:07:24;22;20;
59546;PMS5003;45368;55.002;-1.592;2023-06-14T02:09:51;26;23;
59546;PMS5003;45368;55.002;-1.592;2023-06-14T02:12:18;21;20;
59546;PMS5003;45368;55.002;-1.592;2023-06-14T02:14:46;22;21;
59546;PMS5003;45368;55.002;-1.592;2023-06-14T02:17:13;23;22;
59546;PMS5003;45368;55.002;-1.592;2023-06-14T02:19:41;24;22;
59546;PMS5003;45368;55.002;-1.592;2023-06-14T02:22:08;26;24;
59546;PMS5003;45368;55.002;-1.592;2023-06-14T02:24:35;23;22;
59546;PMS5003;45368;55.002;-1.592;2023-06-14T02:27:03;16;16;
59546;PMS5003;45368;55.002;-1.592;2023-06-14T02:29:31;21;21;
59546;PMS5003;45368;55.002;-1.592;2023-06-14T02:31:58;27;24;
59546;PMS5003;45368;55.002;-1.592;2023-06-14T02:34:25;23;23;
59546;PMS5003;45368;55.002;-1.592;2023-06-14T02:36:52;21;21;
59546;PMS5003;45368;55.002;-1.592;2023-06-14T02:39:19;19;19;
59546;PMS5003;45368;55.002;-1.592;2023-06-14T02:41:46;25;24;
59546;PMS5003;45368;55.002;-1.592;2023-06-14T02:44:13;18;17;
59546;PMS5003;45368;55.002;-1.592;2023-06-14T02:46:40;18;18;
59546;PMS5003;45368;55.002;-1.592;2023-06-14T02:49:08;22;20;
59546;PMS5003;45368;55.002;-1.592;2023-06-14T02:51:35;21;19;
59546;PMS5003;45368;55.002;-1.592;2023-06-14T02:54:02;17;17;
59546;PMS5003;45368;55.002;-1.592;2023-06-14T02:56:29;17;17;
59546;PMS5003;45368;55.002;-1.592;2023-06-14T02:58:56;18;17;
59546;PMS5003;45368;55.002;-1.592;2023-06-14T03:01:25;23;20;
59546;PMS5003;45368;55.002;-1.592;2023-06-14T03:03:52;22;20;
59546;PMS5003;45368;55.002;-1.592;2023-06-14T03:06:19;21;20;
59546;PMS5003;45368;55.002;-1.592;2023-06-14T03:08:47;20;18;
59546;PMS5003;45368;55.002;-1.592;2023-06-14T03:11:14;18;17;
59546;PMS5003;45368;55.002;-1.592;2023-06-14T03:13:41;21;19;
59546;PMS5003;45368;55.002;-1.592;2023-06-14T03:16:09;16;15;
59546;PMS5003;45368;55.002;-1.592;2023-06-14T03:18:36;21;18;
59546;PMS5003;45368;55.002;-1.592;2023-06-14T03:21:04;19;17;
59546;PMS5003;45368;55.002;-1.592;2023-06-14T03:23:31;22;20;
59546;PMS5003;45368;55.002;-1.592;2023-06-14T03:25:58;16;15;
59546;PMS5003;45368;55.002;-1.592;2023-06-14T03:28:25;15;15;
59546;PMS5003;45368;55.002;-1.592;2023-06-14T03:30:56;14;13;
59546;PMS5003;45368;55.002;-1.592;2023-06-14T03:33:28;18;16;
59546;PMS5003;45368;55.002;-1.592;2023-06-14T03:35:55;19;18;
59546;PMS5003;45368;55.002;-1.592;2023-06-14T03:38:22;15;15;
59546;PMS5003;45368;55.002;-1.592;2023-06-14T03:48:51;16;15;
59546;PMS5003;45368;55.002;-1.592;2023-06-14T03:51:19;23;22;
59546;PMS5003;45368;55.002;-1.592;2023-06-14T03:53:46;24;21;
59546;PMS5003;45368;55.002;-1.592;2023-06-14T03:56:14;26;24;
59546;PMS5003;45368;55.002;-1.592;2023-06-14T03:58:41;26;25;
59546;PMS5003;45368;55.002;-1.592;2023-06-14T04:01:08;23;21;
59546;PMS5003;45368;55.002;-1.592;2023-06-14T04:03:35;26;26;
59546;PMS5003;45368;55.002;-1.592;2023-06-14T04:06:03;23;22;
59546;PMS5003;45368;55.002;-1.592;2023-06-14T04:08:31;23;23;
59546;PMS5003;45368;55.002;-1.592;2023-06-14T04:10:58;19;19;
59546;PMS5003;45368;55.002;-1.592;2023-06-14T04:13:25;22;21;
59546;PMS5003;45368;55.002;-1.592;2023-06-14T04:15:52;25;21;
59546;PMS5003;45368;55.002;-1.592;2023-06-14T04:18:20;20;20;
59546;PMS5003;45368;55.002;-1.592;2023-06-14T04:20:46;19;18;
59546;PMS5003;45368;55.002;-1.592;2023-06-14T04:23:13;20;19;
59546;PMS5003;45368;55.002;-1.592;2023-06-14T04:25:42;14;14;
59546;PMS5003;45368;55.002;-1.592;2023-06-14T04:28:10;12;12;
59546;PMS5003;45368;55.002;-1.592;2023-06-14T04:30:37;16;16;
59546;PMS5003;45368;55.002;-1.592;2023-06-14T04:33:05;16;15;
59546;PMS5003;45368;55.002;-1.592;2023-06-14T04:35:32;20;19;
59546;PMS5003;45368;55.002;-1.592;2023-06-14T04:38:00;19;18;
59546;PMS5003;45368;55.002;-1.592;2023-06-14T04:40:27;19;18;
59546;PMS5003;45368;55.002;-1.592;2023-06-14T04:42:54;17;17;
59546;PMS5003;45368;55.002;-1.592;2023-06-14T04:45:22;17;16;
59546;PMS5003;45368;55.002;-1.592;2023-06-14T04:47:48;15;15;
59546;PMS5003;45368;55.002;-1.592;2023-06-14T04:50:16;19;19;
59546;PMS5003;45368;55.002;-1.592;2023-06-14T04:52:43;22;21;
59546;PMS5003;45368;55.002;-1.592;2023-06-14T04:55:11;23;20;
59546;PMS5003;45368;55.002;-1.592;2023-06-14T04:57:38;22;22;
59546;PMS5003;45368;55.002;-1.592;2023-06-14T05:00:06;25;24;
59546;PMS5003;45368;55.002;-1.592;2023-06-14T05:02:35;26;23;
59546;PMS5003;45368;55.002;-1.592;2023-06-14T05:05:02;22;21;
59546;PMS5003;45368;55.002;-1.592;2023-06-14T05:07:30;25;23;
59546;PMS5003;45368;55.002;-1.592;2023-06-14T05:09:57;28;28;
59546;PMS5003;45368;55.002;-1.592;2023-06-14T05:12:24;26;26;
59546;PMS5003;45368;55.002;-1.592;2023-06-14T05:14:51;26;23;
59546;PMS5003;45368;55.002;-1.592;2023-06-14T05:17:18;28;25;
59546;PMS5003;45368;55.002;-1.592;2023-06-14T05:19:46;26;23;
59546;PMS5003;45368;55.002;-1.592;2023-06-14T05:22:13;20;20;
59546;PMS5003;45368;55.002;-1.592;2023-06-14T05:24:40;21;21;
59546;PMS5003;45368;55.002;-1.592;2023-06-14T05:27:07;20;19;
59546;PMS5003;45368;55.002;-1.592;2023-06-14T05:29:34;21;20;
59546;PMS5003;45368;55.002;-1.592;2023-06-14T05:32:01;18;18;
59546;PMS5003;45368;55.002;-1.592;2023-06-14T05:34:29;20;20;
59546;PMS5003;45368;55.002;-1.592;2023-06-14T05:36:56;18;17;
59546;PMS5003;45368;55.002;-1.592;2023-06-14T05:39:22;23;20;
59546;PMS5003;45368;55.002;-1.592;2023-06-14T05:41:50;19;19;
59546;PMS5003;45368;55.002;-1.592;2023-06-14T05:44:17;20;19;
59546;PMS5003;45368;55.002;-1.592;2023-06-14T05:46:44;21;19;
59546;PMS5003;45368;55.002;-1.592;2023-06-14T05:49:11;26;24;
59546;PMS5003;45368;55.002;-1.592;2023-06-14T05:51:38;24;24;
59546;PMS5003;45368;55.002;-1.592;2023-06-14T05:54:06;24;23;
59546;PMS5003;45368;55.002;-1.592;2023-06-14T05:56:33;21;21;
59546;PMS5003;45368;55.002;-1.592;2023-06-14T05:59:00;20;20;
59546;PMS5003;45368;55.002;-1.592;2023-06-14T06:01:28;20;19;
59546;PMS5003;45368;55.002;-1.592;2023-06-14T06:03:55;20;19;
59546;PMS5003;45368;55.002;-1.592;2023-06-14T06:06:22;22;21;
59546;PMS5003;45368;55.002;-1.592;2023-06-14T06:08:50;20;20;
59546;PMS5003;45368;55.002;-1.592;2023-06-14T06:11:17;21;21;
59546;PMS5003;45368;55.002;-1.592;2023-06-14T06:13:44;26;23;
59546;PMS5003;45368;55.002;-1.592;2023-06-14T06:16:12;20;20;
59546;PMS5003;45368;55.002;-1.592;2023-06-14T06:18:39;26;26;
59546;PMS5003;45368;55.002;-1.592;2023-06-14T06:21:07;19;19;
59546;PMS5003;45368;55.002;-1.592;2023-06-14T06:23:34;20;20;
59546;PMS5003;45368;55.002;-1.592;2023-06-14T06:26:02;19;18;
59546;PMS5003;45368;55.002;-1.592;2023-06-14T06:28:29;18;18;
59546;PMS5003;45368;55.002;-1.592;2023-06-14T06:30:56;18;17;
59546;PMS5003;45368;55.002;-1.592;2023-06-14T06:33:23;18;18;
59546;PMS5003;45368;55.002;-1.592;2023-06-14T06:35:50;21;17;
59546;PMS5003;45368;55.002;-1.592;2023-06-14T06:38:16;21;17;
59546;PMS5003;45368;55.002;-1.592;2023-06-14T06:40:43;16;16;
59546;PMS5003;45368;55.002;-1.592;2023-06-14T06:43:11;15;13;
59546;PMS5003;45368;55.002;-1.592;2023-06-14T06:45:39;15;14;
59546;PMS5003;45368;55.002;-1.592;2023-06-14T06:48:06;15;13;
59546;PMS5003;45368;55.002;-1.592;2023-06-14T06:50:34;11;11;
59546;PMS5003;45368;55.002;-1.592;2023-06-14T06:53:01;9;9;
59546;PMS5003;45368;55.002;-1.592;2023-06-14T06:55:29;10;10;
59546;PMS5003;45368;55.002;-1.592;2023-06-14T06:57:57;12;11;
59546;PMS5003;45368;55.002;-1.592;2023-06-14T07:00:24;10;8;
59546;PMS5003;45368;55.002;-1.592;2023-06-14T07:02:52;9;7;
59546;PMS5003;45368;55.002;-1.592;2023-06-14T07:05:18;7;7;
59546;PMS5003;45368;55.002;-1.592;2023-06-14T07:07:46;8;8;
59546;PMS5003;45368;55.002;-1.592;2023-06-14T07:10:13;10;9;
59546;PMS5003;45368;55.002;-1.592;2023-06-14T07:12:41;9;8;
59546;PMS5003;45368;55.002;-1.592;2023-06-14T07:15:09;10;10;
59546;PMS5003;45368;55.002;-1.592;2023-06-14T07:17:36;10;7;
59546;PMS5003;45368;55.002;-1.592;2023-06-14T07:20:04;9;8;
59546;PMS5003;45368;55.002;-1.592;2023-06-14T07:22:32;7;7;
59546;PMS5003;45368;55.002;-1.592;2023-06-14T07:24:59;7;6;
59546;PMS5003;45368;55.002;-1.592;2023-06-14T07:27:27;9;9;
59546;PMS5003;45368;55.002;-1.592;2023-06-14T07:29:54;7;7;
59546;PMS5003;45368;55.002;-1.592;2023-06-14T07:32:22;8;8;
59546;PMS5003;45368;55.002;-1.592;2023-06-14T07:34:53;9;9;
59546;PMS5003;45368;55.002;-1.592;2023-06-14T07:37:22;8;7;
59546;PMS5003;45368;55.002;-1.592;2023-06-14T07:39:49;7;6;
59546;PMS5003;45368;55.002;-1.592;2023-06-14T07:42:21;8;7;
59546;PMS5003;45368;55.002;-1.592;2023-06-14T07:44:48;8;7;
59546;PMS5003;45368;55.002;-1.592;2023-06-14T07:47:16;7;7;
59546;PMS5003;45368;55.002;-1.592;2023-06-14T07:49:44;8;6;
59546;PMS5003;45368;55.002;-1.592;2023-06-14T07:52:11;6;6;
59546;PMS5003;45368;55.002;-1.592;2023-06-14T07:54:39;7;7;
59546;PMS5003;45368;55.002;-1.592;2023-06-14T07:57:06;8;6;
59546;PMS5003;45368;55.002;-1.592;2023-06-14T07:59:34;8;7;
59546;PMS5003;45368;55.002;-1.592;2023-06-14T08:02:02;6;6;
59546;PMS5003;45368;55.002;-1.592;2023-06-14T08:04:30;7;7;
59546;PMS5003;45368;55.002;-1.592;2023-06-14T08:06:58;6;5;
59546;PMS5003;45368;55.002;-1.592;2023-06-14T08:09:26;5;5;
59546;PMS5003;45368;55.002;-1.592;2023-06-14T08:11:53;6;6;
59546;PMS5003;45368;55.002;-1.592;2023-06-14T08:14:20;7;7;
59546;PMS5003;45368;55.002;-1.592;2023-06-14T08:16:47;6;6;
59546;PMS5003;45368;55.002;-1.592;2023-06-14T08:19:15;6;6;
59546;PMS5003;45368;55.002;-1.592;2023-06-14T08:21:42;6;6;
59546;PMS5003;45368;55.002;-1.592;2023-06-14T08:24:10;5;5;
59546;PMS5003;45368;55.002;-1.592;2023-06-14T08:26:39;6;6;
59546;PMS5003;45368;55.002;-1.592;2023-06-14T08:29:06;4;4;
59546;PMS5003;45368;55.002;-1.592;2023-06-14T08:31:34;6;5;
59546;PMS5003;45368;55.002;-1.592;2023-06-14T08:34:01;6;5;
59546;PMS5003;45368;55.002;-1.592;2023-06-14T08:36:29;7;5;
59546;PMS5003;45368;55.002;-1.592;2023-06-14T08:38:56;6;6;
59546;PMS5003;45368;55.002;-1.592;2023-06-14T08:41:24;6;6;
59546;PMS5003;45368;55.002;-1.592;2023-06-14T08:43:51;8;8;
59546;PMS5003;45368;55.002;-1.592;2023-06-14T08:46:19;6;6;
59546;PMS5003;45368;55.002;-1.592;2023-06-14T08:48:47;6;6;
59546;PMS5003;45368;55.002;-1.592;2023-06-14T08:51:16;7;5;
59546;PMS5003;45368;55.002;-1.592;2023-06-14T08:53:51;6;4;
59546;PMS5003;45368;55.002;-1.592;2023-06-14T08:56:21;5;5;
59546;PMS5003;45368;55.002;-1.592;2023-06-14T08:58:49;6;6;
59546;PMS5003;45368;55.002;-1.592;2023-06-14T09:01:17;6;4;
59546;PMS5003;45368;55.002;-1.592;2023-06-14T09:03:44;6;6;
59546;PMS5003;45368;55.002;-1.592;2023-06-14T09:06:11;7;6;
59546;PMS5003;45368;55.002;-1.592;2023-06-14T09:08:40;5;5;
59546;PMS5003;45368;55.002;-1.592;2023-06-14T09:11:10;5;5;
59546;PMS5003;45368;55.002;-1.592;2023-06-14T09:13:38;5;5;
59546;PMS5003;45368;55.002;-1.592;2023-06-14T09:17:23;3;3;
59546;PMS5003;45368;55.002;-1.592;2023-06-14T09:19:51;4;4;
59546;PMS5003;45368;55.002;-1.592;2023-06-14T09:22:22;6;6;
59546;PMS5003;45368;55.002;-1.592;2023-06-14T09:24:48;6;6;
59546;PMS5003;45368;55.002;-1.592;2023-06-14T09:27:15;6;6;
59546;PMS5003;45368;55.002;-1.592;2023-06-14T09:29:43;6;6;
59546;PMS5003;45368;55.002;-1.592;2023-06-14T09:32:10;6;6;
59546;PMS5003;45368;55.002;-1.592;2023-06-14T09:34:37;6;5;
59546;PMS5003;45368;55.002;-1.592;2023-06-14T09:37:05;7;6;
59546;PMS5003;45368;55.002;-1.592;2023-06-14T09:39:32;4;4;
59546;PMS5003;45368;55.002;-1.592;2023-06-14T09:42:00;6;5;
59546;PMS5003;45368;55.002;-1.592;2023-06-14T09:44:27;6;6;
59546;PMS5003;45368;55.002;-1.592;2023-06-14T09:46:55;7;6;
59546;PMS5003;45368;55.002;-1.592;2023-06-14T09:49:23;7;7;
59546;PMS5003;45368;55.002;-1.592;2023-06-14T09:51:51;7;6;
59546;PMS5003;45368;55.002;-1.592;2023-06-14T09:54:22;6;6;
59546;PMS5003;45368;55.002;-1.592;2023-06-14T09:56:52;6;5;
59546;PMS5003;45368;55.002;-1.592;2023-06-14T09:59:22;6;6;
59546;PMS5003;45368;55.002;-1.592;2023-06-14T10:01:53;5;5;
59546;PMS5003;45368;55.002;-1.592;2023-06-14T10:04:24;7;6;
59546;PMS5003;45368;55.002;-1.592;2023-06-14T10:06:53;7;6;
59546;PMS5003;45368;55.002;-1.592;2023-06-14T10:09:21;7;6;
59546;PMS5003;45368;55.002;-1.592;2023-06-14T10:11:48;7;6;
59546;PMS5003;45368;55.002;-1.592;2023-06-14T10:14:16;7;6;
59546;PMS5003;45368;55.002;-1.592;2023-06-14T10:16:46;4;4;
59546;PMS5003;45368;55.002;-1.592;2023-06-14T10:19:21;7;7;
59546;PMS5003;45368;55.002;-1.592;2023-06-14T10:21:55;6;5;
59546;PMS5003;45368;55.002;-1.592;2023-06-14T10:24:32;5;5;
59546;PMS5003;45368;55.002;-1.592;2023-06-14T10:27:05;9;9;
59546;PMS5003;45368;55.002;-1.592;2023-06-14T10:29:34;8;6;
59546;PMS5003;45368;55.002;-1.592;2023-06-14T10:32:27;6;6;
59546;PMS5003;45368;55.002;-1.592;2023-06-14T10:34:55;8;7;
59546;PMS5003;45368;55.002;-1.592;2023-06-14T10:37:23;8;8;
59546;PMS5003;45368;55.002;-1.592;2023-06-14T10:39:51;6;5;
59546;PMS5003;45368;55.002;-1.592;2023-06-14T10:42:18;7;6;
59546;PMS5003;45368;55.002;-1.592;2023-06-14T10:44:49;6;6;
59546;PMS5003;45368;55.002;-1.592;2023-06-14T10:47:20;6;6;
59546;PMS5003;45368;55.002;-1.592;2023-06-14T10:49:51;4;4;
59546;PMS5003;45368;55.002;-1.592;2023-06-14T10:52:22;7;7;
59546;PMS5003;45368;55.002;-1.592;2023-06-14T10:55:08;5;4;
59546;PMS5003;45368;55.002;-1.592;2023-06-14T10:57:36;5;5;
59546;PMS5003;45368;55.002;-1.592;2023-06-14T11:00:07;6;5;
59546;PMS5003;45368;55.002;-1.592;2023-06-14T11:02:45;9;6;
59546;PMS5003;45368;55.002;-1.592;2023-06-14T11:06:20;6;6;
59546;PMS5003;45368;55.002;-1.592;2023-06-14T11:08:56;6;6;
59546;PMS5003;45368;55.002;-1.592;2023-06-14T11:11:47;5;4;
59546;PMS5003;45368;55.002;-1.592;2023-06-14T11:14:15;3;2;
59546;PMS5003;45368;55.002;-1.592;2023-06-14T11:16:42;4;4;
59546;PMS5003;45368;55.002;-1.592;2023-06-14T11:19:14;5;4;
59546;PMS5003;45368;55.002;-1.592;2023-06-14T11:21:42;4;4;
59546;PMS5003;45368;55.002;-1.592;2023-06-14T11:24:13;4;4;
59546;PMS5003;45368;55.002;-1.592;2023-06-14T11:26:41;6;5;
59546;PMS5003;45368;55.002;-1.592;2023-06-14T11:29:08;3;3;
59546;PMS5003;45368;55.002;-1.592;2023-06-14T11:31:36;4;4;
59546;PMS5003;45368;55.002;-1.592;2023-06-14T11:34:03;4;4;
59546;PMS5003;45368;55.002;-1.592;2023-06-14T11:36:33;5;5;
59546;PMS5003;45368;55.002;-1.592;2023-06-14T11:39:00;3;3;
59546;PMS5003;45368;55.002;-1.592;2023-06-14T11:41:33;4;4;
59546;PMS5003;45368;55.002;-1.592;2023-06-14T11:44:02;3;3;
59546;PMS5003;45368;55.002;-1.592;2023-06-14T11:46:30;2;2;
59546;PMS5003;45368;55.002;-1.592;2023-06-14T11:48:57;6;3;
59546;PMS5003;45368;55.002;-1.592;2023-06-14T11:51:25;3;2;
59546;PMS5003;45368;55.002;-1.592;2023-06-14T11:53:53;4;3;
59546;PMS5003;45368;55.002;-1.592;2023-06-14T11:56:21;5;4;
59546;PMS5003;45368;55.002;-1.592;2023-06-14T11:58:49;4;3;
59546;PMS5003;45368;55.002;-1.592;2023-06-14T12:01:16;5;4;
59546;PMS5003;45368;55.002;-1.592;2023-06-14T12:03:47;4;4;
59546;PMS5003;45368;55.002;-1.592;2023-06-14T12:06:15;3;3;
59546;PMS5003;45368;55.002;-1.592;2023-06-14T12:08:43;4;4;
59546;PMS5003;45368;55.002;-1.592;2023-06-14T12:11:11;5;5;
59546;PMS5003;45368;55.002;-1.592;2023-06-14T12:13:39;5;4;
59546;PMS5003;45368;55.002;-1.592;2023-06-14T12:16:07;3;3;
59546;PMS5003;45368;55.002;-1.592;2023-06-14T12:18:35;6;4;
59546;PMS5003;45368;55.002;-1.592;2023-06-14T12:21:04;5;4;
59546;PMS5003;45368;55.002;-1.592;2023-06-14T12:23:39;6;6;
59546;PMS5003;45368;55.002;-1.592;2023-06-14T12:26:08;6;5;
59546;PMS5003;45368;55.002;-1.592;2023-06-14T12:28:35;5;5;
59546;PMS5003;45368;55.002;-1.592;2023-06-14T12:31:03;4;4;
59546;PMS5003;45368;55.002;-1.592;2023-06-14T12:33:30;6;4;
59546;PMS5003;45368;55.002;-1.592;2023-06-14T12:35:56;3;3;
59546;PMS5003;45368;55.002;-1.592;2023-06-14T12:38:24;3;3;
59546;PMS5003;45368;55.002;-1.592;2023-06-14T12:40:51;5;4;
59546;PMS5003;45368;55.002;-1.592;2023-06-14T12:43:18;5;4;
59546;PMS5003;45368;55.002;-1.592;2023-06-14T12:45:44;4;4;
59546;PMS5003;45368;55.002;-1.592;2023-06-14T12:48:11;5;5;
59546;PMS5003;45368;55.002;-1.592;2023-06-14T12:50:38;6;4;
59546;PMS5003;45368;55.002;-1.592;2023-06-14T12:53:05;4;4;
59546;PMS5003;45368;55.002;-1.592;2023-06-14T12:55:32;6;4;
59546;PMS5003;45368;55.002;-1.592;2023-06-14T12:57:59;7;6;
59546;PMS5003;45368;55.002;-1.592;2023-06-14T13:00:27;2;2;
59546;PMS5003;45368;55.002;-1.592;2023-06-14T13:02:55;4;4;
59546;PMS5003;45368;55.002;-1.592;2023-06-14T13:05:22;4;4;
59546;PMS5003;45368;55.002;-1.592;2023-06-14T13:07:50;3;3;
59546;PMS5003;45368;55.002;-1.592;2023-06-14T13:10:18;4;4;
59546;PMS5003;45368;55.002;-1.592;2023-06-14T13:12:45;5;5;
59546;PMS5003;45368;55.002;-1.592;2023-06-14T13:15:13;6;5;
59546;PMS5003;45368;55.002;-1.592;2023-06-14T13:17:40;6;5;
59546;PMS5003;45368;55.002;-1.592;2023-06-14T13:20:07;5;5;
59546;PMS5003;45368;55.002;-1.592;2023-06-14T13:22:36;5;5;
59546;PMS5003;45368;55.002;-1.592;2023-06-14T13:25:04;4;3;
59546;PMS5003;45368;55.002;-1.592;2023-06-14T13:27:32;3;3;
59546;PMS5003;45368;55.002;-1.592;2023-06-14T13:29:59;4;4;
59546;PMS5003;45368;55.002;-1.592;2023-06-14T13:32:26;4;4;
59546;PMS5003;45368;55.002;-1.592;2023-06-14T13:34:54;5;5;
59546;PMS5003;45368;55.002;-1.592;2023-06-14T13:37:22;5;5;
59546;PMS5003;45368;55.002;-1.592;2023-06-14T13:39:48;3;3;
59546;PMS5003;45368;55.002;-1.592;2023-06-14T13:42:16;7;6;
59546;PMS5003;45368;55.002;-1.592;2023-06-14T13:44:44;4;4;
59546;PMS5003;45368;55.002;-1.592;2023-06-14T13:47:12;5;5;
59546;PMS5003;45368;55.002;-1.592;2023-06-14T13:49:39;5;4;
59546;PMS5003;45368;55.002;-1.592;2023-06-14T13:52:07;6;6;
59546;PMS5003;45368;55.002;-1.592;2023-06-14T13:54:34;5;4;
59546;PMS5003;45368;55.002;-1.592;2023-06-14T13:57:02;5;5;
59546;PMS5003;45368;55.002;-1.592;2023-06-14T13:59:30;6;6;
59546;PMS5003;45368;55.002;-1.592;2023-06-14T14:01:56;5;4;
59546;PMS5003;45368;55.002;-1.592;2023-06-14T14:04:23;4;4;
59546;PMS5003;45368;55.002;-1.592;2023-06-14T14:06:50;5;5;
59546;PMS5003;45368;55.002;-1.592;2023-06-14T14:09:17;6;5;
59546;PMS5003;45368;55.002;-1.592;2023-06-14T14:11:44;5;5;
59546;PMS5003;45368;55.002;-1.592;2023-06-14T14:14:11;9;7;
59546;PMS5003;45368;55.002;-1.592;2023-06-14T14:16:38;7;6;
59546;PMS5003;45368;55.002;-1.592;2023-06-14T14:19:05;6;6;
59546;PMS5003;45368;55.002;-1.592;2023-06-14T14:21:33;4;4;
59546;PMS5003;45368;55.002;-1.592;2023-06-14T14:24:01;5;5;
59546;PMS5003;45368;55.002;-1.592;2023-06-14T14:26:28;4;3;
59546;PMS5003;45368;55.002;-1.592;2023-06-14T14:28:55;4;4;
59546;PMS5003;45368;55.002;-1.592;2023-06-14T14:31:23;6;5;
59546;PMS5003;45368;55.002;-1.592;2023-06-14T14:33:50;4;3;
59546;PMS5003;45368;55.002;-1.592;2023-06-14T14:36:18;4;3;
59546;PMS5003;45368;55.002;-1.592;2023-06-14T14:38:46;5;5;
59546;PMS5003;45368;55.002;-1.592;2023-06-14T14:41:13;4;3;
59546;PMS5003;45368;55.002;-1.592;2023-06-14T14:43:41;4;4;
59546;PMS5003;45368;55.002;-1.592;2023-06-14T14:46:09;4;4;
59546;PMS5003;45368;55.002;-1.592;2023-06-14T14:48:37;5;5;
59546;PMS5003;45368;55.002;-1.592;2023-06-14T14:51:05;6;5;
59546;PMS5003;45368;55.002;-1.592;2023-06-14T14:53:32;5;5;
59546;PMS5003;45368;55.002;-1.592;2023-06-14T14:55:59;6;5;
59546;PMS5003;45368;55.002;-1.592;2023-06-14T14:58:27;4;4;
59546;PMS5003;45368;55.002;-1.592;2023-06-14T15:00:54;4;4;
59546;PMS5003;45368;55.002;-1.592;2023-06-14T15:03:20;5;4;
59546;PMS5003;45368;55.002;-1.592;2023-06-14T15:05:47;5;5;
59546;PMS5003;45368;55.002;-1.592;2023-06-14T15:08:14;4;4;
59546;PMS5003;45368;55.002;-1.592;2023-06-14T15:10:42;4;4;
59546;PMS5003;45368;55.002;-1.592;2023-06-14T15:13:10;4;4;
59546;PMS5003;45368;55.002;-1.592;2023-06-14T15:15:37;4;4;
59546;PMS5003;45368;55.002;-1.592;2023-06-14T15:18:05;4;4;
59546;PMS5003;45368;55.002;-1.592;2023-06-14T15:20:32;5;4;
59546;PMS5003;45368;55.002;-1.592;2023-06-14T15:23:02;6;5;
59546;PMS5003;45368;55.002;-1.592;2023-06-14T15:25:29;5;4;
59546;PMS5003;45368;55.002;-1.592;2023-06-14T15:27:57;6;4;
59546;PMS5003;45368;55.002;-1.592;2023-06-14T15:30:24;4;4;
59546;PMS5003;45368;55.002;-1.592;2023-06-14T15:32:52;6;6;
59546;PMS5003;45368;55.002;-1.592;2023-06-14T15:35:20;4;4;
59546;PMS5003;45368;55.002;-1.592;2023-06-14T15:37:47;5;5;
59546;PMS5003;45368;55.002;-1.592;2023-06-14T15:40:15;5;4;
59546;PMS5003;45368;55.002;-1.592;2023-06-14T15:42:42;5;4;
59546;PMS5003;45368;55.002;-1.592;2023-06-14T15:45:11;5;5;
59546;PMS5003;45368;55.002;-1.592;2023-06-14T15:47:40;4;4;
59546;PMS5003;45368;55.002;-1.592;2023-06-14T15:50:08;4;4;
59546;PMS5003;45368;55.002;-1.592;2023-06-14T15:52:37;7;7;
59546;PMS5003;45368;55.002;-1.592;2023-06-14T15:55:05;3;3;
59546;PMS5003;45368;55.002;-1.592;2023-06-14T15:57:34;5;5;
59546;PMS5003;45368;55.002;-1.592;2023-06-14T16:00:03;5;4;
59546;PMS5003;45368;55.002;-1.592;2023-06-14T16:02:33;4;4;
59546;PMS5003;45368;55.002;-1.592;2023-06-14T16:05:00;6;6;
59546;PMS5003;45368;55.002;-1.592;2023-06-14T16:07:28;6;5;
59546;PMS5003;45368;55.002;-1.592;2023-06-14T16:09:55;4;4;
59546;PMS5003;45368;55.002;-1.592;2023-06-14T16:12:21;5;5;
59546;PMS5003;45368;55.002;-1.592;2023-06-14T16:14:48;5;5;
59546;PMS5003;45368;55.002;-1.592;2023-06-14T16:17:17;6;5;
59546;PMS5003;45368;55.002;-1.592;2023-06-14T16:19:45;4;4;
59546;PMS5003;45368;55.002;-1.592;2023-06-14T16:22:13;6;5;
59546;PMS5003;45368;55.002;-1.592;2023-06-14T16:24:40;5;5;
59546;PMS5003;45368;55.002;-1.592;2023-06-14T16:27:06;7;5;
59546;PMS5003;45368;55.002;-1.592;2023-06-14T16:29:33;4;4;
59546;PMS5003;45368;55.002;-1.592;2023-06-14T16:32:01;4;4;
59546;PMS5003;45368;55.002;-1.592;2023-06-14T16:34:29;5;5;
59546;PMS5003;45368;55.002;-1.592;2023-06-14T16:36:56;6;5;